Terminal Aerodrome Forecast
Issued by NWS

Home | Current Version | Previous Version | Graphics & Text | Print | Product List | Glossary On
Versions: 1 2 3 4 5 6 7 8 9 10 11 12 13 14 15 16
964
FTUS43 KMPX 272330
TAFRWF
TAF
KRWF 272330Z 2800/2824 33010KT P6SM OVC025
     FM280200 30006KT P6SM SCT025
     FM280500 28006KT P6SM SKC
     FM281000 33007KT P6SM SKC
     FM281900 02008KT P6SM OVC180=

USA.gov is the U.S. government's official web portal to all federal, state and local government web resources and services.